createdAt,value
2018-12-20T00:00:41.866Z,1010.64
2018-12-20T00:02:34.662Z,1010.68
2018-12-20T00:03:34.486Z,1010.66
2018-12-20T00:05:27.291Z,1010.67
2018-12-20T00:06:27.250Z,1010.66
2018-12-20T00:08:20.100Z,1010.64
2018-12-20T00:09:19.921Z,1010.64
2018-12-20T00:11:13.244Z,1010.60
2018-12-20T00:12:12.630Z,1010.56
2018-12-20T00:14:05.434Z,1010.59
2018-12-20T00:15:05.438Z,1010.56
2018-12-20T00:16:58.173Z,1010.52
2018-12-20T00:17:58.069Z,1010.56
2018-12-20T00:19:51.128Z,1010.51
2018-12-20T00:20:51.033Z,1010.60
2018-12-20T00:22:43.796Z,1010.57
2018-12-20T00:23:43.760Z,1010.61
2018-12-20T00:25:36.494Z,1010.60
2018-12-20T00:26:36.372Z,1010.58
2018-12-20T00:28:29.856Z,1010.61
2018-12-20T00:29:29.131Z,1010.59
2018-12-20T00:31:21.920Z,1010.59
2018-12-20T00:32:21.767Z,1010.67
2018-12-20T00:34:14.559Z,1010.67
2018-12-20T00:35:14.656Z,1010.65
2018-12-20T00:37:07.233Z,1010.67
2018-12-20T00:38:07.162Z,1010.73
2018-12-20T00:40:06.443Z,1010.68
2018-12-20T00:40:59.956Z,1010.67
2018-12-20T00:42:52.714Z,1010.73
2018-12-20T00:43:52.868Z,1010.72
2018-12-20T00:45:45.554Z,1010.73
2018-12-20T00:46:45.573Z,1010.77
2018-12-20T00:48:38.295Z,1010.81
2018-12-20T00:49:38.280Z,1010.78
2018-12-20T00:51:30.955Z,1010.82
2018-12-20T00:52:30.894Z,1010.79
2018-12-20T00:54:23.670Z,1010.80
2018-12-20T00:55:23.615Z,1010.83
2018-12-20T00:57:16.394Z,1010.86
2018-12-20T00:58:16.471Z,1010.90
2018-12-20T01:00:09.102Z,1010.87
2018-12-20T01:01:08.962Z,1010.91
2018-12-20T01:03:01.770Z,1010.91
2018-12-20T01:04:01.695Z,1010.89
2018-12-20T01:05:54.660Z,1010.87
2018-12-20T01:06:54.436Z,1010.88
2018-12-20T01:08:47.370Z,1010.88
2018-12-20T01:09:47.078Z,1010.88
2018-12-20T01:11:39.865Z,1010.96
2018-12-20T01:12:39.772Z,1010.91
2018-12-20T01:14:32.636Z,1010.92
2018-12-20T01:15:32.480Z,1010.87
2018-12-20T01:17:25.308Z,1010.93
2018-12-20T01:18:25.167Z,1010.93
2018-12-20T01:20:18.035Z,1010.97
2018-12-20T01:21:17.962Z,1010.93
2018-12-20T01:23:10.715Z,1010.89
2018-12-20T01:24:10.635Z,1010.95
2018-12-20T01:26:03.405Z,1010.95
2018-12-20T01:27:03.324Z,1010.99
2018-12-20T01:28:56.119Z,1010.97
2018-12-20T01:29:56.046Z,1010.95
2018-12-20T01:31:48.783Z,1010.91
2018-12-20T01:32:48.958Z,1010.92
2018-12-20T01:34:41.517Z,1010.89
2018-12-20T01:35:41.428Z,1010.87
2018-12-20T01:37:34.451Z,1010.91
2018-12-20T01:38:34.378Z,1010.86
2018-12-20T01:40:27.279Z,1010.87
2018-12-20T01:41:27.189Z,1010.87
2018-12-20T01:43:19.831Z,1010.87
2018-12-20T01:44:19.867Z,1010.87
2018-12-20T01:46:12.630Z,1010.87
2018-12-20T01:47:12.499Z,1010.86
2018-12-20T01:49:05.241Z,1010.84
2018-12-20T01:50:05.158Z,1010.84
2018-12-20T01:51:57.930Z,1010.82
2018-12-20T01:52:58.021Z,1010.79
2018-12-20T01:54:50.630Z,1010.79
2018-12-20T01:55:50.697Z,1010.77
2018-12-20T01:57:43.328Z,1010.75
2018-12-20T01:58:43.367Z,1010.72
2018-12-20T02:00:35.984Z,1010.78
2018-12-20T02:01:35.900Z,1010.76
2018-12-20T02:03:28.814Z,1010.79
2018-12-20T02:04:28.590Z,1010.79
2018-12-20T02:06:21.385Z,1010.79
2018-12-20T02:07:21.441Z,1010.79
2018-12-20T02:09:14.099Z,1010.82
2018-12-20T02:10:14.109Z,1010.78
2018-12-20T02:12:06.754Z,1010.80
2018-12-20T02:13:06.651Z,1010.75
2018-12-20T02:15:01.882Z,1010.80
2018-12-20T02:15:59.382Z,1010.79
2018-12-20T02:17:52.110Z,1010.77
2018-12-20T02:18:52.199Z,1010.75
2018-12-20T02:20:44.803Z,1010.73
2018-12-20T02:21:44.717Z,1010.71
2018-12-20T02:23:37.501Z,1010.72
2018-12-20T02:24:37.526Z,1010.70
2018-12-20T02:26:30.191Z,1010.66
2018-12-20T02:27:30.214Z,1010.67
2018-12-20T02:29:22.913Z,1010.61
2018-12-20T02:30:22.812Z,1010.66
2018-12-20T02:32:15.603Z,1010.64
2018-12-20T02:33:15.567Z,1010.60
2018-12-20T02:35:08.366Z,1010.60
2018-12-20T02:36:08.245Z,1010.59
2018-12-20T02:38:01.148Z,1010.61
2018-12-20T02:39:01.097Z,1010.64
2018-12-20T02:40:53.821Z,1010.60
2018-12-20T02:41:53.663Z,1010.61
2018-12-20T02:43:46.633Z,1010.59
2018-12-20T02:44:46.545Z,1010.60
2018-12-20T02:46:39.372Z,1010.55
2018-12-20T02:47:39.462Z,1010.58
2018-12-20T02:49:32.101Z,1010.52
2018-12-20T02:50:31.947Z,1010.52
2018-12-20T02:52:24.805Z,1010.49
2018-12-20T02:53:24.813Z,1010.49
2018-12-20T02:55:17.431Z,1010.48
2018-12-20T02:56:17.373Z,1010.50
2018-12-20T02:58:10.127Z,1010.45
2018-12-20T02:59:10.277Z,1010.47
2018-12-20T03:01:02.857Z,1010.46
2018-12-20T03:02:02.793Z,1010.45
2018-12-20T03:03:55.516Z,1010.43
2018-12-20T03:04:55.585Z,1010.40
2018-12-20T03:06:48.393Z,1010.42
2018-12-20T03:07:48.124Z,1010.38
2018-12-20T03:09:41.589Z,1010.40
2018-12-20T03:10:40.855Z,1010.38
2018-12-20T03:12:33.639Z,1010.38
2018-12-20T03:13:33.537Z,1010.41
2018-12-20T03:15:26.507Z,1010.37
2018-12-20T03:16:26.406Z,1010.41
2018-12-20T03:18:19.129Z,1010.42
2018-12-20T03:19:18.897Z,1010.41
2018-12-20T03:21:11.709Z,1010.39
2018-12-20T03:22:11.603Z,1010.40
2018-12-20T03:24:04.406Z,1010.39
2018-12-20T03:25:04.288Z,1010.36
2018-12-20T03:26:57.372Z,1010.36
2018-12-20T03:27:57.110Z,1010.32
2018-12-20T03:29:50.015Z,1010.31
2018-12-20T03:30:49.817Z,1010.33
2018-12-20T03:32:42.934Z,1010.33
2018-12-20T03:33:42.539Z,1010.32
2018-12-20T03:35:35.223Z,1010.34
2018-12-20T03:36:35.272Z,1010.29
2018-12-20T03:38:28.068Z,1010.31
2018-12-20T03:39:27.821Z,1010.27
2018-12-20T03:41:20.631Z,1010.33
2018-12-20T03:42:20.683Z,1010.34
2018-12-20T03:44:13.286Z,1010.27
2018-12-20T03:45:13.550Z,1010.29
2018-12-20T03:47:06.020Z,1010.28
2018-12-20T03:48:05.910Z,1010.24
2018-12-20T03:49:58.661Z,1010.27
2018-12-20T03:50:58.602Z,1010.28
2018-12-20T03:52:51.517Z,1010.22
2018-12-20T03:53:51.554Z,1010.20
2018-12-20T03:55:44.255Z,1010.21
2018-12-20T03:56:44.257Z,1010.17
2018-12-20T03:58:36.943Z,1010.18
2018-12-20T03:59:36.957Z,1010.22
2018-12-20T04:01:29.578Z,1010.21
2018-12-20T04:02:29.579Z,1010.19
2018-12-20T04:04:22.329Z,1010.19
2018-12-20T04:05:22.250Z,1010.20
2018-12-20T04:07:14.909Z,1010.22
2018-12-20T04:08:14.972Z,1010.21
2018-12-20T04:10:07.606Z,1010.27
2018-12-20T04:11:07.504Z,1010.32
2018-12-20T04:13:01.271Z,1010.35
2018-12-20T04:14:00.201Z,1010.38
2018-12-20T04:15:53.023Z,1010.40
2018-12-20T04:18:45.776Z,1010.36
2018-12-20T04:19:45.683Z,1010.34
2018-12-20T04:21:38.462Z,1010.30
2018-12-20T04:22:38.525Z,1010.30
2018-12-20T04:24:31.207Z,1010.32
2018-12-20T04:25:31.231Z,1010.33
2018-12-20T04:27:23.879Z,1010.32
2018-12-20T04:28:24.187Z,1010.33
2018-12-20T04:30:16.562Z,1010.37
2018-12-20T04:31:16.556Z,1010.39
2018-12-20T04:33:09.402Z,1010.30
2018-12-20T04:34:09.159Z,1010.30
2018-12-20T04:36:01.953Z,1010.29
2018-12-20T04:37:01.853Z,1010.33
2018-12-20T04:38:54.821Z,1010.30
2018-12-20T04:39:54.552Z,1010.27
2018-12-20T04:41:47.614Z,1010.25
2018-12-20T04:42:47.479Z,1010.28
2018-12-20T04:44:40.388Z,1010.25
2018-12-20T04:45:46.628Z,1010.29
2018-12-20T04:47:32.917Z,1010.25
2018-12-20T04:48:32.807Z,1010.27
2018-12-20T04:50:25.698Z,1010.18
2018-12-20T04:51:25.485Z,1010.25
2018-12-20T04:53:18.285Z,1010.20
2018-12-20T04:54:18.206Z,1010.18
2018-12-20T04:56:11.054Z,1010.18
2018-12-20T04:57:11.044Z,1010.18
2018-12-20T04:59:03.672Z,1010.21
2018-12-20T05:00:03.578Z,1010.23
2018-12-20T05:01:56.364Z,1010.26
2018-12-20T05:02:56.454Z,1010.21
2018-12-20T05:04:49.061Z,1010.25
2018-12-20T05:05:49.233Z,1010.25
2018-12-20T05:07:41.888Z,1010.26
2018-12-20T05:08:41.784Z,1010.26
2018-12-20T05:10:34.433Z,1010.19
2018-12-20T05:11:34.372Z,1010.17
2018-12-20T05:13:27.134Z,1010.20
2018-12-20T05:14:27.271Z,1010.19
2018-12-20T05:16:19.976Z,1010.18
2018-12-20T05:17:19.726Z,1010.16
2018-12-20T05:19:12.548Z,1010.19
2018-12-20T05:20:12.395Z,1010.17
2018-12-20T05:22:05.171Z,1010.15
2018-12-20T05:23:05.249Z,1010.21
2018-12-20T05:24:57.861Z,1010.21
2018-12-20T05:25:57.821Z,1010.24
2018-12-20T05:27:50.565Z,1010.22
2018-12-20T05:28:50.482Z,1010.22
2018-12-20T05:30:43.491Z,1010.17
2018-12-20T05:31:43.217Z,1010.17
2018-12-20T05:33:36.121Z,1010.15
2018-12-20T05:34:35.920Z,1010.15
2018-12-20T05:36:28.755Z,1010.13
2018-12-20T05:37:28.667Z,1010.13
2018-12-20T05:39:21.403Z,1010.07
2018-12-20T05:40:21.339Z,1010.08
2018-12-20T05:42:14.101Z,1010.06
2018-12-20T05:43:14.010Z,1010.09
2018-12-20T05:45:06.785Z,1010.12
2018-12-20T05:46:06.696Z,1010.08
2018-12-20T05:47:59.743Z,1010.09
2018-12-20T05:48:59.569Z,1010.09
2018-12-20T05:50:52.200Z,1010.12
2018-12-20T05:51:52.135Z,1010.09
2018-12-20T05:53:44.943Z,1010.13
2018-12-20T05:54:44.822Z,1010.15
2018-12-20T05:56:37.615Z,1010.15
2018-12-20T05:57:37.552Z,1010.16
2018-12-20T05:59:30.321Z,1010.16
2018-12-20T06:00:30.255Z,1010.13
2018-12-20T06:02:23.246Z,1010.14
2018-12-20T06:03:23.092Z,1010.15
2018-12-20T06:05:15.773Z,1010.18
2018-12-20T06:06:15.762Z,1010.17
2018-12-20T06:08:08.463Z,1010.13
2018-12-20T06:09:08.514Z,1010.14
2018-12-20T06:11:01.128Z,1010.17
2018-12-20T06:12:01.025Z,1010.17
2018-12-20T06:13:55.214Z,1010.20
2018-12-20T06:14:53.748Z,1010.20
2018-12-20T06:16:46.466Z,1010.22
2018-12-20T06:17:46.393Z,1010.20
2018-12-20T06:19:39.165Z,1010.17
2018-12-20T06:20:39.083Z,1010.15
2018-12-20T06:22:31.850Z,1010.11
2018-12-20T06:23:31.747Z,1010.13
2018-12-20T06:25:24.536Z,1010.08
2018-12-20T06:26:24.419Z,1010.01
2018-12-20T06:28:17.199Z,1010.02
2018-12-20T06:29:17.117Z,1010.07
2018-12-20T06:31:09.905Z,1010.05
2018-12-20T06:32:09.817Z,1010.07
2018-12-20T06:34:02.593Z,1010.12
2018-12-20T06:35:02.507Z,1010.12
2018-12-20T06:36:55.268Z,1010.13
2018-12-20T06:37:55.199Z,1010.09
2018-12-20T06:39:48.003Z,1010.08
2018-12-20T06:40:47.924Z,1010.06
2018-12-20T06:42:40.686Z,1010.06
2018-12-20T06:43:40.599Z,1010.03
2018-12-20T06:45:33.377Z,1010.04
2018-12-20T06:46:33.294Z,1010.07
2018-12-20T06:48:26.111Z,1010.04
2018-12-20T06:49:26.030Z,1010.02
2018-12-20T06:51:18.804Z,1009.99
2018-12-20T06:52:18.817Z,1009.98
2018-12-20T06:54:11.502Z,1009.98
2018-12-20T06:55:11.412Z,1009.96
2018-12-20T06:57:04.190Z,1009.98
2018-12-20T06:58:04.103Z,1009.98
2018-12-20T06:59:56.941Z,1010.04
2018-12-20T07:00:56.864Z,1010.03
2018-12-20T07:02:49.624Z,1010.06
2018-12-20T07:03:49.554Z,1010.06
2018-12-20T07:05:42.319Z,1010.04
2018-12-20T07:06:42.275Z,1010.08
2018-12-20T07:08:35.012Z,1010.10
2018-12-20T07:09:34.927Z,1010.10
2018-12-20T07:11:27.713Z,1010.14
2018-12-20T07:12:27.685Z,1010.11
2018-12-20T07:14:20.424Z,1010.11
2018-12-20T07:15:20.353Z,1010.13
2018-12-20T07:17:13.221Z,1010.18
2018-12-20T07:18:13.128Z,1010.16
2018-12-20T07:20:05.939Z,1010.14
2018-12-20T07:21:05.821Z,1010.18
2018-12-20T07:22:58.657Z,1010.21
2018-12-20T07:23:58.543Z,1010.21
2018-12-20T07:25:51.476Z,1010.22
2018-12-20T07:26:51.381Z,1010.16
2018-12-20T07:28:44.295Z,1010.18
2018-12-20T07:29:44.094Z,1010.19
2018-12-20T07:31:36.869Z,1010.20
2018-12-20T07:32:36.795Z,1010.19
2018-12-20T07:34:29.827Z,1010.16
2018-12-20T07:35:29.558Z,1010.21
2018-12-20T07:37:24.286Z,1010.16
2018-12-20T07:38:22.316Z,1010.17
2018-12-20T07:40:15.079Z,1010.15
2018-12-20T07:41:15.012Z,1010.17
2018-12-20T07:43:07.848Z,1010.17
2018-12-20T07:44:07.794Z,1010.19
2018-12-20T07:46:00.641Z,1010.21
2018-12-20T07:47:00.516Z,1010.22
2018-12-20T07:48:53.432Z,1010.21
2018-12-20T07:49:53.206Z,1010.27
2018-12-20T07:51:45.990Z,1010.28
2018-12-20T07:52:45.914Z,1010.27
2018-12-20T07:54:38.809Z,1010.24
2018-12-20T07:55:38.756Z,1010.23
2018-12-20T07:57:31.653Z,1010.23
2018-12-20T07:58:31.508Z,1010.22
2018-12-20T08:00:24.292Z,1010.20
2018-12-20T08:01:24.296Z,1010.22
2018-12-20T08:03:16.956Z,1010.23
2018-12-20T08:04:16.903Z,1010.21
2018-12-20T08:06:09.879Z,1010.20
2018-12-20T08:07:09.693Z,1010.17
2018-12-20T08:09:02.488Z,1010.21
2018-12-20T08:10:02.391Z,1010.25
2018-12-20T08:11:55.163Z,1010.19
2018-12-20T08:12:55.127Z,1010.20
2018-12-20T08:14:47.892Z,1010.21
2018-12-20T08:15:47.863Z,1010.25
2018-12-20T08:17:41.037Z,1010.26
2018-12-20T08:18:40.513Z,1010.25
2018-12-20T08:20:33.320Z,1010.30
2018-12-20T08:21:33.263Z,1010.29
2018-12-20T08:23:26.124Z,1010.29
2018-12-20T08:24:26.001Z,1010.34
2018-12-20T08:26:19.025Z,1010.33
2018-12-20T08:27:18.968Z,1010.35
2018-12-20T08:29:11.714Z,1010.37
2018-12-20T08:30:11.664Z,1010.36
2018-12-20T08:32:04.491Z,1010.38
2018-12-20T08:33:04.485Z,1010.41
2018-12-20T08:34:57.499Z,1010.42
2018-12-20T08:35:57.271Z,1010.43
2018-12-20T08:37:50.881Z,1010.42
2018-12-20T08:38:50.844Z,1010.43
2018-12-20T08:40:43.793Z,1010.46
2018-12-20T08:41:43.588Z,1010.45
2018-12-20T08:43:36.376Z,1010.47
2018-12-20T08:44:36.296Z,1010.52
2018-12-20T08:46:29.185Z,1010.49
2018-12-20T08:47:29.049Z,1010.47
2018-12-20T08:49:22.081Z,1010.50
2018-12-20T08:50:22.026Z,1010.53
2018-12-20T08:52:14.937Z,1010.54
2018-12-20T08:53:14.714Z,1010.55
2018-12-20T08:55:07.566Z,1010.55
2018-12-20T08:56:07.494Z,1010.56
2018-12-20T08:58:00.218Z,1010.48
2018-12-20T08:59:00.141Z,1010.48
2018-12-20T09:00:52.942Z,1010.48
2018-12-20T09:01:52.823Z,1010.52
2018-12-20T09:03:45.615Z,1010.48
2018-12-20T09:04:45.530Z,1010.56
2018-12-20T09:06:38.349Z,1010.54
2018-12-20T09:07:38.246Z,1010.55
2018-12-20T09:09:31.119Z,1010.58
2018-12-20T09:10:31.020Z,1010.62
2018-12-20T09:12:23.823Z,1010.62
2018-12-20T09:13:23.849Z,1010.63
2018-12-20T09:15:16.729Z,1010.64
2018-12-20T09:16:16.451Z,1010.64
2018-12-20T09:18:09.266Z,1010.66
2018-12-20T09:19:09.164Z,1010.67
2018-12-20T09:21:02.109Z,1010.71
2018-12-20T09:22:01.980Z,1010.66
2018-12-20T09:23:54.777Z,1010.67
2018-12-20T09:24:54.686Z,1010.65
2018-12-20T09:26:47.568Z,1010.67
2018-12-20T09:27:47.428Z,1010.65
2018-12-20T09:29:40.215Z,1010.63
2018-12-20T09:30:40.124Z,1010.61
2018-12-20T09:32:32.884Z,1010.64
2018-12-20T09:33:32.840Z,1010.66
2018-12-20T09:35:25.597Z,1010.68
2018-12-20T09:36:25.537Z,1010.61
2018-12-20T09:38:18.329Z,1010.64
2018-12-20T09:39:18.208Z,1010.67
2018-12-20T09:41:11.117Z,1010.67
2018-12-20T09:42:11.056Z,1010.63
2018-12-20T09:44:03.849Z,1010.67
2018-12-20T09:45:03.678Z,1010.65
2018-12-20T09:46:56.487Z,1010.67
2018-12-20T09:47:56.387Z,1010.69
2018-12-20T09:49:49.154Z,1010.72
2018-12-20T09:50:49.098Z,1010.70
2018-12-20T09:52:41.867Z,1010.64
2018-12-20T09:53:41.790Z,1010.61
2018-12-20T09:55:34.631Z,1010.65
2018-12-20T09:56:34.551Z,1010.61
2018-12-20T09:58:27.282Z,1010.60
2018-12-20T09:59:27.216Z,1010.58
2018-12-20T10:01:20.228Z,1010.54
2018-12-20T10:02:19.992Z,1010.52
2018-12-20T10:04:12.685Z,1010.52
2018-12-20T10:05:12.621Z,1010.52
2018-12-20T10:07:05.390Z,1010.50
2018-12-20T10:08:05.310Z,1010.45
2018-12-20T10:09:58.153Z,1010.42
2018-12-20T10:10:58.067Z,1010.41
2018-12-20T10:12:50.838Z,1010.41
2018-12-20T10:13:50.753Z,1010.39
2018-12-20T10:15:43.534Z,1010.35
2018-12-20T10:16:43.555Z,1010.36
2018-12-20T10:18:36.287Z,1010.38
2018-12-20T10:19:36.198Z,1010.32
2018-12-20T10:21:29.003Z,1010.31
2018-12-20T10:22:28.914Z,1010.29
2018-12-20T10:24:21.678Z,1010.33
2018-12-20T10:25:21.605Z,1010.32
2018-12-20T10:27:14.496Z,1010.25
2018-12-20T10:28:14.330Z,1010.21
2018-12-20T10:30:07.319Z,1010.20
2018-12-20T10:31:07.221Z,1010.17
2018-12-20T10:33:00.010Z,1010.18
2018-12-20T10:33:59.922Z,1010.17
2018-12-20T10:35:52.719Z,1010.14
2018-12-20T10:36:52.618Z,1010.11
2018-12-20T10:38:45.441Z,1010.12
2018-12-20T10:39:45.413Z,1010.10
2018-12-20T10:41:38.288Z,1010.07
2018-12-20T10:42:38.132Z,1010.03
2018-12-20T10:44:30.906Z,1009.96
2018-12-20T10:45:30.826Z,1010.01
2018-12-20T10:47:28.832Z,1009.96
2018-12-20T10:48:23.530Z,1009.93
2018-12-20T10:50:16.331Z,1009.89
2018-12-20T10:51:16.242Z,1009.95
2018-12-20T10:53:09.088Z,1009.93
2018-12-20T10:54:08.973Z,1009.88
2018-12-20T10:56:01.741Z,1009.86
2018-12-20T10:57:01.648Z,1009.81
2018-12-20T10:58:54.399Z,1009.78
2018-12-20T10:59:54.364Z,1009.73
2018-12-20T11:01:47.088Z,1009.74
2018-12-20T11:02:47.039Z,1009.69
2018-12-20T11:04:39.777Z,1009.69
2018-12-20T11:05:39.717Z,1009.68
2018-12-20T11:07:32.522Z,1009.64
2018-12-20T11:08:32.459Z,1009.66
2018-12-20T11:10:25.255Z,1009.64
2018-12-20T11:11:25.177Z,1009.62
2018-12-20T11:13:18.041Z,1009.69
2018-12-20T11:14:17.930Z,1009.63
2018-12-20T11:16:10.722Z,1009.57
2018-12-20T11:17:10.631Z,1009.59
2018-12-20T11:19:03.703Z,1009.50
2018-12-20T11:20:03.455Z,1009.51
2018-12-20T11:21:56.128Z,1009.46
2018-12-20T11:22:56.052Z,1009.49
2018-12-20T11:24:48.859Z,1009.52
2018-12-20T11:25:48.808Z,1009.47
2018-12-20T11:27:41.590Z,1009.42
2018-12-20T11:28:41.486Z,1009.44
2018-12-20T11:30:34.284Z,1009.40
2018-12-20T11:31:34.218Z,1009.36
2018-12-20T11:33:27.258Z,1009.37
2018-12-20T11:34:26.986Z,1009.37
2018-12-20T11:36:19.762Z,1009.34
2018-12-20T11:37:19.723Z,1009.35
2018-12-20T11:39:12.514Z,1009.27
2018-12-20T11:40:12.416Z,1009.34
2018-12-20T11:42:05.277Z,1009.34
2018-12-20T11:43:05.287Z,1009.35
2018-12-20T11:44:58.045Z,1009.40
2018-12-20T11:45:57.956Z,1009.41
2018-12-20T11:47:51.005Z,1009.42
2018-12-20T11:48:50.922Z,1009.43
2018-12-20T11:50:43.669Z,1009.43
2018-12-20T11:51:43.668Z,1009.43
2018-12-20T11:53:36.404Z,1009.43
2018-12-20T11:54:36.295Z,1009.40
2018-12-20T11:56:29.131Z,1009.43
2018-12-20T11:57:29.060Z,1009.39
2018-12-20T11:59:21.846Z,1009.32
2018-12-20T12:00:21.766Z,1009.33
2018-12-20T12:02:14.591Z,1009.30
2018-12-20T12:03:14.467Z,1009.24
2018-12-20T12:05:07.249Z,1009.27
2018-12-20T12:06:07.274Z,1009.25
2018-12-20T12:07:59.968Z,1009.26
2018-12-20T12:08:59.892Z,1009.28
2018-12-20T12:10:52.679Z,1009.33
2018-12-20T12:11:52.596Z,1009.35
2018-12-20T12:13:45.428Z,1009.37
2018-12-20T12:14:45.343Z,1009.40
2018-12-20T12:16:38.134Z,1009.36
2018-12-20T12:17:38.063Z,1009.33
2018-12-20T12:19:30.820Z,1009.30
2018-12-20T12:20:30.734Z,1009.26
2018-12-20T12:22:23.528Z,1009.25
2018-12-20T12:23:23.412Z,1009.26
2018-12-20T12:25:16.249Z,1009.22
2018-12-20T12:26:16.151Z,1009.25
2018-12-20T12:28:08.956Z,1009.28
2018-12-20T12:29:08.928Z,1009.28
2018-12-20T12:31:01.670Z,1009.31
2018-12-20T12:32:01.582Z,1009.34
2018-12-20T12:33:54.377Z,1009.33
2018-12-20T12:34:54.293Z,1009.26
2018-12-20T12:36:47.088Z,1009.35
2018-12-20T12:37:47.017Z,1009.31
2018-12-20T12:39:39.819Z,1009.36
2018-12-20T12:40:39.727Z,1009.32
2018-12-20T12:42:32.498Z,1009.32
2018-12-20T12:43:32.420Z,1009.31
2018-12-20T12:45:25.268Z,1009.28
2018-12-20T12:46:25.125Z,1009.26
2018-12-20T12:48:17.981Z,1009.22
2018-12-20T12:49:17.886Z,1009.21
2018-12-20T12:51:10.639Z,1009.19
2018-12-20T12:52:10.552Z,1009.18
2018-12-20T12:54:03.348Z,1009.18
2018-12-20T12:55:03.238Z,1009.17
2018-12-20T12:56:55.993Z,1009.15
2018-12-20T12:58:04.456Z,1009.16
2018-12-20T12:59:48.706Z,1009.15
2018-12-20T13:00:48.636Z,1009.17
2018-12-20T13:02:41.404Z,1009.11
2018-12-20T13:03:41.324Z,1009.11
2018-12-20T13:05:34.387Z,1009.11
2018-12-20T13:06:34.228Z,1009.13
2018-12-20T13:08:27.028Z,1009.14
2018-12-20T13:09:26.937Z,1009.12
2018-12-20T13:11:19.767Z,1009.12
2018-12-20T13:12:19.655Z,1009.17
2018-12-20T13:14:12.421Z,1009.16
2018-12-20T13:15:12.339Z,1009.15
2018-12-20T13:17:05.106Z,1009.16
2018-12-20T13:18:13.597Z,1009.20
2018-12-20T13:19:57.871Z,1009.22
2018-12-20T13:20:57.796Z,1009.21
2018-12-20T13:22:50.562Z,1009.23
2018-12-20T13:23:50.473Z,1009.25
2018-12-20T13:25:43.316Z,1009.29
2018-12-20T13:26:43.164Z,1009.28
2018-12-20T13:28:35.973Z,1009.28
2018-12-20T13:29:35.850Z,1009.32
2018-12-20T13:31:28.615Z,1009.28
2018-12-20T13:32:28.558Z,1009.27
2018-12-20T13:34:21.338Z,1009.25
2018-12-20T13:35:21.241Z,1009.26
2018-12-20T13:37:15.913Z,1009.22
2018-12-20T13:38:13.969Z,1009.20
2018-12-20T13:40:06.725Z,1009.17
2018-12-20T13:41:06.642Z,1009.17
2018-12-20T13:42:59.424Z,1009.15
2018-12-20T13:43:59.349Z,1009.13
2018-12-20T13:45:52.126Z,1009.16
2018-12-20T13:46:52.038Z,1009.15
2018-12-20T13:48:44.830Z,1009.24
2018-12-20T13:49:44.756Z,1009.19
2018-12-20T13:51:37.550Z,1009.24
2018-12-20T13:52:37.470Z,1009.20
2018-12-20T13:54:30.243Z,1009.16
2018-12-20T13:55:30.163Z,1009.17
2018-12-20T13:57:22.934Z,1009.18
2018-12-20T13:58:22.859Z,1009.18
2018-12-20T14:00:15.642Z,1009.18
2018-12-20T14:01:15.562Z,1009.20
2018-12-20T14:03:08.342Z,1009.23
2018-12-20T14:04:08.497Z,1009.26
2018-12-20T14:06:01.122Z,1009.24
2018-12-20T14:07:01.035Z,1009.31
2018-12-20T14:08:53.800Z,1009.26
2018-12-20T14:09:53.729Z,1009.23
2018-12-20T14:11:47.600Z,1009.25
2018-12-20T14:12:46.701Z,1009.25
2018-12-20T14:14:39.456Z,1009.25
2018-12-20T14:15:39.373Z,1009.28
2018-12-20T14:17:32.211Z,1009.30
2018-12-20T14:18:32.141Z,1009.33
2018-12-20T14:20:25.049Z,1009.37
2018-12-20T14:21:24.903Z,1009.34
2018-12-20T14:23:17.796Z,1009.33
2018-12-20T14:24:17.730Z,1009.33
2018-12-20T14:26:10.679Z,1009.33
2018-12-20T14:27:12.563Z,1009.33
2018-12-20T14:29:03.456Z,1009.34
2018-12-20T14:30:03.341Z,1009.32
2018-12-20T14:31:56.119Z,1009.35
2018-12-20T14:32:56.035Z,1009.33
2018-12-20T14:34:49.002Z,1009.35
2018-12-20T14:35:48.730Z,1009.38
2018-12-20T14:37:41.484Z,1009.34
2018-12-20T14:38:41.422Z,1009.33
2018-12-20T14:40:34.191Z,1009.30
2018-12-20T14:41:34.110Z,1009.31
2018-12-20T14:43:26.890Z,1009.35
2018-12-20T14:44:26.814Z,1009.35
2018-12-20T14:46:19.602Z,1009.39
2018-12-20T14:47:19.517Z,1009.40
2018-12-20T14:49:12.288Z,1009.47
2018-12-20T14:50:12.211Z,1009.44
2018-12-20T14:52:04.981Z,1009.44
2018-12-20T14:53:04.884Z,1009.43
2018-12-20T14:54:57.641Z,1009.54
2018-12-20T14:55:57.577Z,1009.52
2018-12-20T14:57:50.357Z,1009.55
2018-12-20T14:58:50.255Z,1009.56
2018-12-20T15:00:43.087Z,1009.57
2018-12-20T15:01:43.013Z,1009.54
2018-12-20T15:03:35.753Z,1009.58
2018-12-20T15:04:35.684Z,1009.60
2018-12-20T15:06:28.458Z,1009.55
2018-12-20T15:07:28.386Z,1009.56
2018-12-20T15:09:21.124Z,1009.56
2018-12-20T15:10:21.084Z,1009.53
2018-12-20T15:12:13.831Z,1009.49
2018-12-20T15:13:13.750Z,1009.48
2018-12-20T15:15:06.511Z,1009.47
2018-12-20T15:16:06.435Z,1009.45
2018-12-20T15:17:59.200Z,1009.44
2018-12-20T15:18:59.125Z,1009.44
2018-12-20T15:20:51.914Z,1009.43
2018-12-20T15:21:51.817Z,1009.50
2018-12-20T15:23:44.593Z,1009.50
2018-12-20T15:24:44.519Z,1009.46
2018-12-20T15:26:37.490Z,1009.47
2018-12-20T15:27:37.222Z,1009.48
2018-12-20T15:29:29.986Z,1009.49
2018-12-20T15:30:29.913Z,1009.47
2018-12-20T15:32:22.748Z,1009.46
2018-12-20T15:33:22.640Z,1009.43
2018-12-20T15:35:15.407Z,1009.47
2018-12-20T15:36:15.318Z,1009.47
2018-12-20T15:38:08.117Z,1009.48
2018-12-20T15:39:08.027Z,1009.48
2018-12-20T15:41:02.083Z,1009.46
2018-12-20T15:42:00.728Z,1009.47
2018-12-20T15:43:53.447Z,1009.49
2018-12-20T15:44:53.407Z,1009.49
2018-12-20T15:46:46.147Z,1009.43
2018-12-20T15:47:46.064Z,1009.46
2018-12-20T15:49:42.125Z,1009.43
2018-12-20T15:50:38.767Z,1009.46
2018-12-20T15:52:31.543Z,1009.43
2018-12-20T15:53:31.482Z,1009.43
2018-12-20T15:55:24.221Z,1009.53
2018-12-20T15:56:24.143Z,1009.48
2018-12-20T15:58:16.925Z,1009.50
2018-12-20T15:59:16.905Z,1009.54
2018-12-20T16:01:09.624Z,1009.46
2018-12-20T16:02:09.551Z,1009.53
2018-12-20T16:04:02.320Z,1009.50
2018-12-20T16:05:02.236Z,1009.49
2018-12-20T16:06:55.025Z,1009.48
2018-12-20T16:07:54.927Z,1009.49
2018-12-20T16:09:47.686Z,1009.51
2018-12-20T16:10:47.600Z,1009.52
2018-12-20T16:12:40.453Z,1009.51
2018-12-20T16:13:40.309Z,1009.57
2018-12-20T16:15:33.068Z,1009.54
2018-12-20T16:16:32.988Z,1009.53
2018-12-20T16:18:25.792Z,1009.59
2018-12-20T16:19:25.691Z,1009.56
2018-12-20T16:21:18.461Z,1009.59
2018-12-20T16:22:18.423Z,1009.61
2018-12-20T16:24:11.186Z,1009.62
2018-12-20T16:25:11.088Z,1009.61
2018-12-20T16:27:03.860Z,1009.58
2018-12-20T16:28:03.767Z,1009.57
2018-12-20T16:29:56.545Z,1009.59
2018-12-20T16:30:56.491Z,1009.58
2018-12-20T16:32:49.245Z,1009.60
2018-12-20T16:33:49.173Z,1009.55
2018-12-20T16:35:42.197Z,1009.58
2018-12-20T16:36:41.944Z,1009.59
2018-12-20T16:38:34.699Z,1009.60
2018-12-20T16:39:34.655Z,1009.61
2018-12-20T16:41:27.563Z,1009.59
2018-12-20T16:42:27.312Z,1009.55
2018-12-20T16:44:20.360Z,1009.56
2018-12-20T16:45:20.268Z,1009.54
2018-12-20T16:47:13.181Z,1009.55
2018-12-20T16:48:13.099Z,1009.58
2018-12-20T16:50:05.878Z,1009.59
2018-12-20T16:51:05.822Z,1009.57
2018-12-20T16:52:58.621Z,1009.58
2018-12-20T16:53:58.533Z,1009.60
2018-12-20T16:55:51.316Z,1009.60
2018-12-20T16:56:51.241Z,1009.61
2018-12-20T16:58:44.059Z,1009.56
2018-12-20T16:59:43.972Z,1009.61
2018-12-20T17:01:36.728Z,1009.59
2018-12-20T17:02:36.663Z,1009.59
2018-12-20T17:04:29.543Z,1009.58
2018-12-20T17:05:29.359Z,1009.58
2018-12-20T17:07:22.278Z,1009.55
2018-12-20T17:08:22.112Z,1009.57
2018-12-20T17:10:14.904Z,1009.56
2018-12-20T17:11:14.802Z,1009.54
2018-12-20T17:13:07.580Z,1009.56
2018-12-20T17:14:07.536Z,1009.56
2018-12-20T17:16:00.285Z,1009.54
2018-12-20T17:17:00.184Z,1009.53
2018-12-20T17:18:53.083Z,1009.55
2018-12-20T17:19:52.864Z,1009.57
2018-12-20T17:21:45.782Z,1009.56
2018-12-20T17:22:45.696Z,1009.53
2018-12-20T17:24:38.650Z,1009.53
2018-12-20T17:25:38.418Z,1009.51